createdAt,value
2018-02-21T00:00:57.338Z,43.40
2018-02-21T00:03:24.794Z,33.28
2018-02-21T00:05:52.228Z,37.07
2018-02-21T00:08:19.680Z,43.30
2018-02-21T00:10:47.899Z,37.30
2018-02-21T00:13:15.341Z,36.88
2018-02-21T00:15:42.790Z,42.97
2018-02-21T00:18:11.023Z,38.22
2018-02-21T00:20:38.465Z,36.72
2018-02-21T00:23:05.910Z,35.22
2018-02-21T00:25:33.373Z,37.50
2018-02-21T00:28:00.844Z,32.28
2018-02-21T00:30:28.273Z,41.60
2018-02-21T00:32:56.503Z,37.20
2018-02-21T00:35:23.954Z,34.65
2018-02-21T00:37:51.412Z,37.60
2018-02-21T00:40:18.857Z,32.03
2018-02-21T00:42:46.320Z,34.28
2018-02-21T00:45:13.777Z,40.90
2018-02-21T00:47:41.230Z,35.40
2018-02-21T00:50:09.440Z,38.83
2018-02-21T00:52:36.906Z,39.72
2018-02-21T00:55:04.371Z,36.47
2018-02-21T00:57:31.819Z,35.45
2018-02-21T00:59:59.269Z,31.80
2018-02-21T01:02:26.726Z,37.17
2018-02-21T01:04:54.181Z,31.48
2018-02-21T01:07:22.414Z,34.47
2018-02-21T01:09:49.860Z,31.02
2018-02-21T01:12:17.327Z,35.33
2018-02-21T01:14:44.794Z,38.83
2018-02-21T01:17:12.245Z,35.05
2018-02-21T01:19:39.692Z,34.97
2018-02-21T01:22:07.133Z,36.10
2018-02-21T01:24:35.349Z,35.25
2018-02-21T01:27:02.811Z,35.75
2018-02-21T01:29:30.253Z,37.25
2018-02-21T01:31:57.711Z,37.88
2018-02-21T01:34:25.184Z,34.83
2018-02-21T01:36:52.629Z,34.92
2018-02-21T01:39:20.841Z,32.33
2018-02-21T01:41:48.288Z,40.78
2018-02-21T01:44:15.760Z,34.05
2018-02-21T01:46:43.203Z,39.60
2018-02-21T01:49:10.666Z,35.03
2018-02-21T01:51:38.125Z,28.25
2018-02-21T01:54:06.350Z,37.83
2018-02-21T01:56:33.807Z,36.13
2018-02-21T01:59:01.275Z,33.97
2018-02-21T02:01:28.740Z,36.55
2018-02-21T02:03:56.205Z,34.45
2018-02-21T02:06:23.659Z,34.05
2018-02-21T02:08:51.123Z,35.45
2018-02-21T02:11:18.599Z,43.97
2018-02-21T02:13:46.055Z,41.35
2018-02-21T02:16:14.270Z,36.70
2018-02-21T02:18:42.489Z,34.22
2018-02-21T02:21:09.948Z,33.35
2018-02-21T02:23:37.407Z,37.13
2018-02-21T02:26:04.866Z,35.53
2018-02-21T02:28:32.322Z,34.90
2018-02-21T02:30:59.770Z,34.42
2018-02-21T02:33:27.990Z,41.35
2018-02-21T02:35:55.527Z,37.50
2018-02-21T02:38:34.878Z,37.58
2018-02-21T02:41:02.326Z,40.55
2018-02-21T02:43:29.778Z,37.10
2018-02-21T02:45:57.246Z,37.28
2018-02-21T02:48:24.688Z,41.35
2018-02-21T02:50:52.923Z,40.05
2018-02-21T02:53:20.387Z,35.95
2018-02-21T02:55:47.868Z,39.40
2018-02-21T02:58:15.315Z,37.85
2018-02-21T03:00:42.787Z,38.03
2018-02-21T03:03:10.237Z,36.28
2018-02-21T03:05:37.703Z,39.20
2018-02-21T03:08:05.144Z,37.67
2018-02-21T03:10:32.607Z,38.65
2018-02-21T03:13:00.053Z,43.70
2018-02-21T03:15:27.505Z,44.75
2018-02-21T03:17:54.948Z,43.53
2018-02-21T03:20:23.167Z,41.03
2018-02-21T03:22:50.609Z,41.50
2018-02-21T03:25:18.075Z,39.22
2018-02-21T03:27:45.516Z,32.58
2018-02-21T03:30:13.733Z,40.03
2018-02-21T03:32:41.168Z,33.22
2018-02-21T03:35:09.392Z,37.88
2018-02-21T03:37:36.851Z,39.63
2018-02-21T03:40:04.320Z,36.72
2018-02-21T03:42:31.772Z,36.30
2018-02-21T03:44:59.240Z,37.97
2018-02-21T03:47:26.711Z,34.28
2018-02-21T03:49:54.160Z,41.42
2018-02-21T03:52:21.604Z,40.15
2018-02-21T03:54:49.058Z,45.67
2018-02-21T03:57:16.505Z,42.92
2018-02-21T03:59:44.728Z,47.03
2018-02-21T04:02:12.183Z,32.47
2018-02-21T04:04:39.625Z,41.20
2018-02-21T04:07:07.082Z,38.47
2018-02-21T04:09:35.296Z,44.55
2018-02-21T04:12:02.752Z,38.30
2018-02-21T04:14:30.199Z,46.70
2018-02-21T04:16:57.644Z,42.35
2018-02-21T04:19:25.127Z,38.33
2018-02-21T04:21:52.572Z,43.17
2018-02-21T04:24:20.023Z,43.05
2018-02-21T04:26:48.258Z,43.75
2018-02-21T04:29:15.708Z,42.92
2018-02-21T04:31:43.163Z,40.58
2018-02-21T04:34:10.619Z,35.80
2018-02-21T04:36:38.091Z,39.05
2018-02-21T04:39:05.542Z,35.13
2018-02-21T04:41:32.992Z,38.50
2018-02-21T04:44:00.432Z,37.35
2018-02-21T04:46:28.681Z,35.70
2018-02-21T04:48:56.129Z,35.63
2018-02-21T04:51:23.587Z,36.72
2018-02-21T04:53:51.042Z,41.30
2018-02-21T04:56:24.321Z,36.78
2018-02-21T04:58:57.462Z,35.88
2018-02-21T05:01:24.926Z,41.40
2018-02-21T05:03:52.382Z,40.88
2018-02-21T05:06:19.845Z,35.22
2018-02-21T05:08:47.293Z,44.13
2018-02-21T05:11:14.745Z,38.88
2018-02-21T05:13:42.196Z,42.78
2018-02-21T05:16:09.653Z,39.50
2018-02-21T05:18:37.100Z,35.20
2018-02-21T05:21:05.309Z,38.65
2018-02-21T05:23:32.773Z,43.22
2018-02-21T05:26:00.238Z,36.72
2018-02-21T05:28:27.703Z,37.60
2018-02-21T05:30:55.158Z,37.33
2018-02-21T05:33:22.604Z,37.70
2018-02-21T05:35:50.048Z,51.92
2018-02-21T05:38:18.279Z,41.08
2018-02-21T05:40:45.731Z,37.10
2018-02-21T05:43:13.191Z,36.85
2018-02-21T05:45:40.636Z,38.92
2018-02-21T05:48:08.121Z,44.85
2018-02-21T05:50:35.579Z,44.00
2018-02-21T05:53:03.090Z,38.75
2018-02-21T05:55:30.506Z,38.88
2018-02-21T05:57:58.063Z,37.30
2018-02-21T06:00:25.488Z,40.20
2018-02-21T06:02:53.717Z,38.90
2018-02-21T06:05:21.168Z,36.95
2018-02-21T06:07:48.635Z,40.42
2018-02-21T06:10:16.090Z,43.20
2018-02-21T06:12:43.570Z,46.55
2018-02-21T06:15:11.060Z,44.78
2018-02-21T06:17:38.527Z,40.95
2018-02-21T06:20:05.968Z,35.95
2018-02-21T06:22:33.610Z,35.92
2018-02-21T06:25:01.077Z,41.83
2018-02-21T06:27:28.536Z,39.90
2018-02-21T06:29:55.996Z,41.13
2018-02-21T06:32:23.561Z,41.00
2018-02-21T06:34:51.764Z,40.42
2018-02-21T06:37:19.231Z,43.22
2018-02-21T06:39:46.678Z,43.22
2018-02-21T06:42:14.125Z,42.90
2018-02-21T06:44:41.597Z,41.90
2018-02-21T06:47:09.050Z,37.17
2018-02-21T06:49:36.530Z,38.42
2018-02-21T06:52:03.969Z,38.90
2018-02-21T06:54:31.438Z,42.20
2018-02-21T06:56:58.895Z,41.50
2018-02-21T06:59:26.341Z,41.60
2018-02-21T07:01:53.811Z,49.47
2018-02-21T07:04:21.253Z,41.10
2018-02-21T07:06:49.479Z,44.78
2018-02-21T07:09:16.934Z,38.63
2018-02-21T07:11:44.399Z,39.78
2018-02-21T07:14:11.880Z,40.88
2018-02-21T07:16:39.319Z,48.13
2018-02-21T07:19:06.791Z,40.15
2018-02-21T07:21:34.228Z,55.03
2018-02-21T07:24:01.703Z,46.53
2018-02-21T07:26:29.165Z,39.78
2018-02-21T07:28:56.616Z,44.30
2018-02-21T07:31:24.062Z,53.70
2018-02-21T07:33:52.275Z,40.63
2018-02-21T07:36:19.734Z,41.28
2018-02-21T07:38:47.194Z,36.42
2018-02-21T07:41:14.659Z,43.83
2018-02-21T07:43:42.125Z,42.53
2018-02-21T07:46:09.565Z,41.42
2018-02-21T07:48:37.038Z,40.05
2018-02-21T07:51:04.518Z,47.80
2018-02-21T07:53:31.971Z,37.70
2018-02-21T07:55:59.427Z,41.63
2018-02-21T07:58:26.895Z,43.97
2018-02-21T08:00:54.346Z,36.47
2018-02-21T08:03:21.820Z,39.13
2018-02-21T08:05:49.261Z,40.75
2018-02-21T08:08:16.719Z,42.42
2018-02-21T08:10:44.950Z,40.53
2018-02-21T08:13:12.423Z,42.70
2018-02-21T08:15:39.861Z,33.67
2018-02-21T08:18:07.311Z,32.15
2018-02-21T08:20:34.762Z,44.17
2018-02-21T08:23:02.213Z,45.15
2018-02-21T08:25:29.677Z,47.13
2018-02-21T08:27:57.113Z,40.40
2018-02-21T08:30:25.337Z,45.75
2018-02-21T08:32:52.789Z,45.10
2018-02-21T08:35:20.253Z,45.05
2018-02-21T08:37:47.704Z,41.10
2018-02-21T08:40:15.912Z,45.65
2018-02-21T08:42:43.389Z,42.97
2018-02-21T08:45:10.839Z,43.75
2018-02-21T08:47:38.276Z,43.65
2018-02-21T08:50:05.737Z,47.60
2018-02-21T08:52:33.191Z,48.03
2018-02-21T08:55:00.636Z,48.03
2018-02-21T08:57:28.842Z,43.53
2018-02-21T08:59:56.326Z,49.25
2018-02-21T09:02:23.775Z,51.17
2018-02-21T09:04:51.271Z,43.65
2018-02-21T09:07:18.750Z,43.75
2018-02-21T09:09:46.222Z,52.90
2018-02-21T09:12:13.672Z,46.72
2018-02-21T09:14:41.114Z,50.90
2018-02-21T09:17:08.581Z,53.00
2018-02-21T09:19:36.071Z,53.35
2018-02-21T09:22:03.525Z,48.97
2018-02-21T09:24:30.999Z,57.70
2018-02-21T09:26:58.460Z,53.97
2018-02-21T09:29:25.905Z,58.57
2018-02-21T09:31:53.367Z,57.33
2018-02-21T09:34:20.809Z,52.88
2018-02-21T09:36:48.257Z,62.58
2018-02-21T09:39:15.709Z,66.28
2018-02-21T09:41:43.159Z,58.95
2018-02-21T09:44:10.601Z,63.40
2018-02-21T09:46:38.834Z,54.33
2018-02-21T09:49:06.289Z,55.28
2018-02-21T09:51:33.783Z,52.15
2018-02-21T09:54:01.247Z,47.67
2018-02-21T09:56:28.717Z,49.38
2018-02-21T09:58:56.169Z,46.13
2018-02-21T10:01:23.626Z,46.00
2018-02-21T10:03:52.042Z,58.35
2018-02-21T10:06:19.486Z,52.27
2018-02-21T10:08:46.928Z,56.95
2018-02-21T10:11:14.391Z,46.58
2018-02-21T10:13:41.815Z,51.47
2018-02-21T10:16:09.284Z,60.70
2018-02-21T10:18:36.743Z,51.75
2018-02-21T10:21:04.185Z,59.40
2018-02-21T10:23:32.392Z,51.10
2018-02-21T10:25:59.858Z,51.92
2018-02-21T10:28:27.302Z,52.43
2018-02-21T10:30:54.749Z,55.65
2018-02-21T10:33:22.979Z,51.80
2018-02-21T10:35:50.427Z,53.87
2018-02-21T10:38:17.867Z,48.93
2018-02-21T10:40:45.327Z,45.90
2018-02-21T10:43:13.533Z,50.53
2018-02-21T10:45:40.994Z,53.30
2018-02-21T10:48:08.436Z,43.03
2018-02-21T10:50:35.892Z,49.40
2018-02-21T10:53:04.096Z,50.10
2018-02-21T10:55:31.535Z,49.57
2018-02-21T10:57:59.757Z,68.43
2018-02-21T11:00:32.845Z,53.93
2018-02-21T11:03:00.289Z,49.60
2018-02-21T11:05:27.746Z,44.23
2018-02-21T11:07:55.198Z,58.40
2018-02-21T11:10:23.394Z,59.23
2018-02-21T11:12:50.838Z,53.73
2018-02-21T11:15:18.273Z,51.73
2018-02-21T11:17:45.735Z,53.27
2018-02-21T11:20:13.177Z,52.00
2018-02-21T11:22:40.624Z,53.60
2018-02-21T11:25:08.067Z,56.73
2018-02-21T11:27:35.517Z,62.37
2018-02-21T11:30:02.957Z,58.13
2018-02-21T11:32:31.183Z,64.00
2018-02-21T11:34:58.625Z,48.77
2018-02-21T11:37:26.082Z,52.40
2018-02-21T11:39:53.505Z,47.93
2018-02-21T11:42:20.967Z,56.33
2018-02-21T11:44:48.400Z,55.07
2018-02-21T11:47:15.845Z,51.63
2018-02-21T11:49:43.281Z,51.73
2018-02-21T11:52:11.498Z,51.60
2018-02-21T11:54:38.946Z,52.40
2018-02-21T11:57:06.394Z,50.80
2018-02-21T11:59:33.828Z,52.77
2018-02-21T12:02:01.266Z,41.10
2018-02-21T12:04:28.717Z,43.83
2018-02-21T12:06:56.158Z,48.87
2018-02-21T12:09:23.604Z,42.93
2018-02-21T12:11:51.063Z,53.57
2018-02-21T12:14:18.505Z,42.33
2018-02-21T12:16:46.720Z,42.80
2018-02-21T12:19:14.176Z,39.40
2018-02-21T12:21:41.612Z,38.10
2018-02-21T12:24:09.823Z,37.33
2018-02-21T12:26:37.294Z,48.77
2018-02-21T12:29:04.773Z,37.50
2018-02-21T12:31:32.218Z,42.60
2018-02-21T12:33:59.690Z,40.20
2018-02-21T12:36:27.157Z,45.20
2018-02-21T12:39:00.422Z,45.33
2018-02-21T12:41:33.582Z,43.13
2018-02-21T12:44:01.803Z,40.63
2018-02-21T12:46:29.253Z,44.83
2018-02-21T12:48:56.706Z,40.77
2018-02-21T12:51:24.896Z,38.13
2018-02-21T12:53:52.341Z,44.97
2018-02-21T12:56:20.540Z,40.07
2018-02-21T12:58:47.984Z,44.30
2018-02-21T13:01:16.208Z,42.00
2018-02-21T13:03:43.658Z,38.83
2018-02-21T13:06:11.103Z,43.90
2018-02-21T13:08:38.559Z,44.83
2018-02-21T13:11:06.020Z,47.50
2018-02-21T13:13:34.233Z,44.27
2018-02-21T13:16:01.684Z,39.70
2018-02-21T13:18:29.196Z,42.90
2018-02-21T13:20:56.696Z,41.30
2018-02-21T13:23:24.909Z,46.13
2018-02-21T13:25:52.406Z,46.40
2018-02-21T13:28:19.802Z,45.03
2018-02-21T13:30:47.232Z,46.40
2018-02-21T13:33:15.472Z,43.60
2018-02-21T13:35:42.919Z,43.93
2018-02-21T13:38:10.392Z,52.57
2018-02-21T13:40:37.827Z,41.73
2018-02-21T13:43:05.273Z,43.77
2018-02-21T13:45:33.473Z,44.20
2018-02-21T13:48:00.931Z,48.37
2018-02-21T13:50:28.362Z,49.30
2018-02-21T13:52:55.817Z,40.43
2018-02-21T13:55:23.287Z,41.83
2018-02-21T13:57:50.706Z,40.00
2018-02-21T14:00:18.164Z,37.13
2018-02-21T14:02:45.620Z,40.37
2018-02-21T14:05:13.074Z,40.67
2018-02-21T14:07:40.519Z,40.00
2018-02-21T14:10:08.748Z,43.03
2018-02-21T14:12:36.199Z,42.83
2018-02-21T14:15:03.663Z,33.33
2018-02-21T14:17:31.141Z,39.47
2018-02-21T14:19:58.556Z,44.07
2018-02-21T14:22:25.989Z,38.90
2018-02-21T14:24:53.433Z,43.80
2018-02-21T14:27:20.888Z,40.00
2018-02-21T14:29:48.347Z,37.63
2018-02-21T14:32:15.794Z,38.50
2018-02-21T14:34:43.244Z,38.60
2018-02-21T14:37:10.688Z,33.60
2018-02-21T14:39:38.133Z,35.80
2018-02-21T14:42:06.355Z,38.90
2018-02-21T14:44:33.815Z,36.63
2018-02-21T14:47:01.259Z,39.33
2018-02-21T14:49:28.717Z,39.83
2018-02-21T14:51:56.978Z,34.67
2018-02-21T14:54:25.204Z,34.50
2018-02-21T14:56:52.647Z,37.13
2018-02-21T14:59:20.122Z,48.40
2018-02-21T15:01:47.606Z,36.53
2018-02-21T15:04:15.082Z,39.63
2018-02-21T15:06:42.534Z,36.57
2018-02-21T15:09:09.987Z,36.97
2018-02-21T15:11:37.436Z,32.27
2018-02-21T15:14:04.886Z,35.90
2018-02-21T15:16:32.348Z,35.50
2018-02-21T15:18:59.826Z,39.17
2018-02-21T15:21:27.282Z,35.07
2018-02-21T15:23:54.726Z,40.93
2018-02-21T15:26:22.213Z,53.40
2018-02-21T15:28:49.686Z,39.83
2018-02-21T15:31:17.867Z,45.63
2018-02-21T15:33:45.316Z,43.80
2018-02-21T15:36:12.757Z,60.70
2018-02-21T15:38:40.225Z,49.40
2018-02-21T15:41:08.430Z,46.23
2018-02-21T15:43:35.875Z,49.73
2018-02-21T15:46:03.343Z,61.63
2018-02-21T15:48:30.793Z,49.83
2018-02-21T15:50:58.257Z,48.53
2018-02-21T15:53:25.711Z,48.33
2018-02-21T15:55:53.172Z,49.23
2018-02-21T15:58:20.610Z,51.00
2018-02-21T16:00:48.840Z,52.83
2018-02-21T16:03:16.292Z,54.17
2018-02-21T16:05:43.763Z,48.00
2018-02-21T16:08:11.213Z,53.47
2018-02-21T16:10:39.098Z,52.00
2018-02-21T16:13:06.559Z,50.40
2018-02-21T16:15:34.008Z,45.13
2018-02-21T16:18:01.446Z,55.07
2018-02-21T16:20:29.672Z,54.67
2018-02-21T16:22:57.151Z,49.57
2018-02-21T16:25:24.607Z,56.57
2018-02-21T16:27:52.058Z,49.40
2018-02-21T16:30:19.512Z,54.07
2018-02-21T16:32:46.982Z,50.97
2018-02-21T16:35:14.437Z,57.90
2018-02-21T16:37:41.891Z,45.20
2018-02-21T16:40:09.356Z,50.67
2018-02-21T16:42:36.809Z,49.03
2018-02-21T16:45:04.276Z,48.63
2018-02-21T16:47:31.756Z,59.50
2018-02-21T16:49:59.208Z,46.63
2018-02-21T16:52:26.676Z,51.80
2018-02-21T16:54:55.120Z,73.53
2018-02-21T16:57:23.362Z,52.53
2018-02-21T16:59:50.804Z,57.60
2018-02-21T17:02:18.264Z,49.23
2018-02-21T17:04:45.719Z,53.50
2018-02-21T17:07:13.183Z,53.63
2018-02-21T17:09:40.628Z,48.00
2018-02-21T17:12:08.091Z,50.67
2018-02-21T17:14:35.539Z,50.83
2018-02-21T17:17:03.763Z,45.73
2018-02-21T17:19:31.224Z,49.87
2018-02-21T17:21:58.686Z,57.90
2018-02-21T17:24:26.138Z,50.00
2018-02-21T17:26:53.595Z,57.20
2018-02-21T17:29:21.048Z,49.03
2018-02-21T17:31:48.507Z,53.17
2018-02-21T17:34:16.004Z,54.70
2018-02-21T17:36:43.445Z,47.13
2018-02-21T17:39:10.888Z,46.47
2018-02-21T17:41:38.347Z,59.27
2018-02-21T17:44:06.587Z,45.87
2018-02-21T17:46:34.023Z,50.37
2018-02-21T17:49:01.475Z,42.40
2018-02-21T17:51:28.946Z,41.10
2018-02-21T17:53:56.403Z,41.80
2018-02-21T17:56:24.878Z,52.60
2018-02-21T17:58:52.341Z,40.47
2018-02-21T18:01:19.807Z,37.40
2018-02-21T18:03:47.252Z,42.70
2018-02-21T18:06:15.491Z,43.50
2018-02-21T18:08:42.934Z,41.20
2018-02-21T18:11:11.151Z,44.20
2018-02-21T18:13:39.364Z,37.40
2018-02-21T18:16:06.810Z,36.63
2018-02-21T18:18:35.036Z,33.30
2018-02-21T18:21:02.487Z,39.83
2018-02-21T18:23:29.942Z,34.13
2018-02-21T18:25:57.396Z,36.40
2018-02-21T18:28:24.849Z,44.63
2018-02-21T18:30:52.281Z,29.37
2018-02-21T18:33:20.503Z,34.03
2018-02-21T18:35:47.933Z,29.70
2018-02-21T18:38:16.144Z,28.40
2018-02-21T18:40:43.585Z,29.27
2018-02-21T18:43:11.029Z,27.07
2018-02-21T18:45:39.237Z,29.73
2018-02-21T18:48:06.672Z,27.67
2018-02-21T18:50:34.888Z,27.43
2018-02-21T18:53:02.352Z,25.97
2018-02-21T18:55:29.794Z,28.60
2018-02-21T18:57:57.253Z,23.40
2018-02-21T19:00:25.455Z,27.10
2018-02-21T19:02:52.901Z,24.33
2018-02-21T19:05:20.355Z,25.87
2018-02-21T19:07:48.562Z,28.40
2018-02-21T19:10:15.997Z,30.57
2018-02-21T19:12:43.466Z,34.90
2018-02-21T19:15:11.685Z,32.70
2018-02-21T19:17:39.133Z,30.93
2018-02-21T19:20:06.587Z,28.27
2018-02-21T19:22:34.051Z,32.53
2018-02-21T19:25:01.496Z,30.13
2018-02-21T19:27:29.723Z,31.17
2018-02-21T19:29:57.163Z,28.53
2018-02-21T19:32:24.601Z,27.20
2018-02-21T19:34:52.062Z,21.07
2018-02-21T19:37:20.331Z,28.73
2018-02-21T19:39:47.739Z,21.60
2018-02-21T19:42:15.173Z,25.60
2018-02-21T19:44:42.624Z,30.33
2018-02-21T19:47:10.064Z,23.93
2018-02-21T19:49:37.531Z,27.00
2018-02-21T19:52:04.985Z,24.87
2018-02-21T19:54:32.452Z,28.07
2018-02-21T19:56:59.900Z,28.73
2018-02-21T19:59:28.250Z,25.63
2018-02-21T20:01:55.689Z,29.40
2018-02-21T20:04:23.148Z,28.00
2018-02-21T20:06:50.607Z,29.50
2018-02-21T20:09:18.073Z,26.97
2018-02-21T20:11:45.524Z,23.10
2018-02-21T20:14:13.739Z,27.60
2018-02-21T20:16:41.220Z,29.90
2018-02-21T20:19:08.649Z,30.33
2018-02-21T20:21:36.110Z,28.27
2018-02-21T20:24:03.563Z,34.83
2018-02-21T20:26:31.007Z,38.93
2018-02-21T20:28:59.213Z,34.93
2018-02-21T20:31:26.690Z,29.77
2018-02-21T20:33:54.169Z,30.73
2018-02-21T20:36:21.593Z,31.67
2018-02-21T20:38:49.043Z,32.30
2018-02-21T20:41:17.253Z,31.55
2018-02-21T20:43:44.721Z,31.63
2018-02-21T20:46:12.160Z,31.50
2018-02-21T20:48:39.617Z,33.97
2018-02-21T20:51:07.066Z,31.67
2018-02-21T20:53:35.266Z,30.70
2018-02-21T20:56:02.724Z,27.70
2018-02-21T20:58:30.170Z,28.53
2018-02-21T21:00:58.382Z,27.17
2018-02-21T21:03:25.820Z,29.60
2018-02-21T21:05:53.296Z,34.20
2018-02-21T21:08:20.752Z,25.13
2018-02-21T21:10:48.208Z,30.80
2018-02-21T21:13:15.653Z,30.13
2018-02-21T21:15:43.902Z,33.93
2018-02-21T21:18:11.304Z,28.90
2018-02-21T21:20:39.533Z,30.70
2018-02-21T21:23:06.974Z,29.03
2018-02-21T21:25:34.425Z,35.17
2018-02-21T21:28:01.917Z,26.73
2018-02-21T21:30:30.069Z,26.77
2018-02-21T21:32:57.508Z,26.25
2018-02-21T21:35:25.725Z,29.07
2018-02-21T21:37:53.203Z,29.70
2018-02-21T21:40:20.626Z,31.67
2018-02-21T21:42:48.079Z,31.50
2018-02-21T21:45:16.313Z,30.30
2018-02-21T21:47:43.748Z,36.53
2018-02-21T21:50:11.199Z,34.50
2018-02-21T21:52:38.633Z,44.13
2018-02-21T21:55:06.856Z,32.40
2018-02-21T21:57:34.296Z,31.12
2018-02-21T22:00:01.754Z,32.17
2018-02-21T22:02:29.957Z,31.90
2018-02-21T22:04:57.401Z,32.10
2018-02-21T22:07:24.840Z,36.57
2018-02-21T22:09:53.064Z,40.23
2018-02-21T22:12:20.500Z,32.92
2018-02-21T22:14:47.953Z,33.97
2018-02-21T22:17:16.176Z,34.53
2018-02-21T22:19:43.612Z,32.17
2018-02-21T22:22:11.067Z,38.70
2018-02-21T22:24:38.521Z,30.17
2018-02-21T22:27:06.728Z,32.93
2018-02-21T22:29:34.171Z,31.67
2018-02-21T22:32:01.661Z,28.33
2018-02-21T22:37:32.811Z,32.08
2018-02-21T22:40:00.279Z,30.62
2018-02-21T22:42:27.747Z,30.33
2018-02-21T22:44:55.193Z,30.88
2018-02-21T22:47:23.411Z,27.42
2018-02-21T22:49:50.866Z,29.20
2018-02-21T22:52:18.338Z,33.45
2018-02-21T22:54:45.784Z,34.00
2018-02-21T22:57:13.237Z,26.90
2018-02-21T22:59:40.687Z,25.02
2018-02-21T23:02:08.136Z,23.62
2018-02-21T23:04:35.596Z,25.50
2018-02-21T23:07:03.050Z,30.35
2018-02-21T23:09:30.538Z,29.77
2018-02-21T23:11:58.000Z,28.60
2018-02-21T23:14:25.454Z,28.52
2018-02-21T23:16:52.923Z,31.40
2018-02-21T23:19:20.394Z,29.23
2018-02-21T23:21:47.852Z,27.98
2018-02-21T23:24:15.289Z,38.43
2018-02-21T23:26:42.732Z,27.17
2018-02-21T23:29:10.190Z,29.58
2018-02-21T23:31:38.414Z,32.50
2018-02-21T23:34:05.853Z,28.02
2018-02-21T23:36:33.325Z,33.00
2018-02-21T23:39:00.765Z,34.20
2018-02-21T23:41:28.220Z,30.80
2018-02-21T23:43:56.433Z,29.05
2018-02-21T23:46:23.930Z,25.52
2018-02-21T23:48:51.325Z,32.58
2018-02-21T23:51:19.568Z,25.35
2018-02-21T23:53:47.020Z,26.98
2018-02-21T23:56:14.485Z,26.85
2018-02-21T23:58:42.696Z,32.83
